sensor_id;sensor_type;location;lat;lon;timestamp;P1;P2;P0
39955;PMS5003;25631;51.516;-0.470;2023-05-07T00:00:04;9;8;
39955;PMS5003;25631;51.516;-0.470;2023-05-07T00:02:42;10;9;
39955;PMS5003;25631;51.516;-0.470;2023-05-07T00:05:18;5;5;
39955;PMS5003;25631;51.516;-0.470;2023-05-07T00:07:55;6;6;
39955;PMS5003;25631;51.516;-0.470;2023-05-07T00:10:31;6;5;
39955;PMS5003;25631;51.516;-0.470;2023-05-07T00:13:07;9;6;
39955;PMS5003;25631;51.516;-0.470;2023-05-07T00:15:44;9;6;
39955;PMS5003;25631;51.516;-0.470;2023-05-07T00:18:20;11;7;
39955;PMS5003;25631;51.516;-0.470;2023-05-07T00:20:56;5;5;
39955;PMS5003;25631;51.516;-0.470;2023-05-07T00:23:33;6;6;
39955;PMS5003;25631;51.516;-0.470;2023-05-07T00:26:10;9;6;
39955;PMS5003;25631;51.516;-0.470;2023-05-07T00:28:46;9;5;
39955;PMS5003;25631;51.516;-0.470;2023-05-07T00:31:22;8;6;
39955;PMS5003;25631;51.516;-0.470;2023-05-07T00:33:59;7;6;
39955;PMS5003;25631;51.516;-0.470;2023-05-07T00:36:35;7;6;
39955;PMS5003;25631;51.516;-0.470;2023-05-07T00:39:11;5;5;
39955;PMS5003;25631;51.516;-0.470;2023-05-07T00:41:48;5;4;
39955;PMS5003;25631;51.516;-0.470;2023-05-07T00:44:24;5;5;
39955;PMS5003;25631;51.516;-0.470;2023-05-07T00:47:01;7;5;
39955;PMS5003;25631;51.516;-0.470;2023-05-07T00:49:41;7;5;
39955;PMS5003;25631;51.516;-0.470;2023-05-07T00:52:19;8;6;
39955;PMS5003;25631;51.516;-0.470;2023-05-07T00:54:57;9;8;
39955;PMS5003;25631;51.516;-0.470;2023-05-07T00:57:36;9;8;
39955;PMS5003;25631;51.516;-0.470;2023-05-07T01:00:15;8;8;
39955;PMS5003;25631;51.516;-0.470;2023-05-07T01:02:52;8;8;
39955;PMS5003;25631;51.516;-0.470;2023-05-07T01:05:28;8;6;
39955;PMS5003;25631;51.516;-0.470;2023-05-07T01:08:05;8;6;
39955;PMS5003;25631;51.516;-0.470;2023-05-07T01:10:42;10;6;
39955;PMS5003;25631;51.516;-0.470;2023-05-07T01:13:19;8;7;
39955;PMS5003;25631;51.516;-0.470;2023-05-07T01:15:56;6;5;
39955;PMS5003;25631;51.516;-0.470;2023-05-07T01:18:33;6;5;
39955;PMS5003;25631;51.516;-0.470;2023-05-07T01:21:10;9;7;
39955;PMS5003;25631;51.516;-0.470;2023-05-07T01:23:47;9;7;
39955;PMS5003;25631;51.516;-0.470;2023-05-07T01:26:23;6;6;
39955;PMS5003;25631;51.516;-0.470;2023-05-07T01:29:00;7;6;
39955;PMS5003;25631;51.516;-0.470;2023-05-07T01:31:36;6;5;
39955;PMS5003;25631;51.516;-0.470;2023-05-07T01:34:16;5;5;
39955;PMS5003;25631;51.516;-0.470;2023-05-07T01:36:55;6;6;
39955;PMS5003;25631;51.516;-0.470;2023-05-07T01:39:36;7;6;
39955;PMS5003;25631;51.516;-0.470;2023-05-07T01:42:14;6;6;
39955;PMS5003;25631;51.516;-0.470;2023-05-07T01:44:51;11;7;
39955;PMS5003;25631;51.516;-0.470;2023-05-07T01:47:27;10;8;
39955;PMS5003;25631;51.516;-0.470;2023-05-07T01:50:06;9;7;
39955;PMS5003;25631;51.516;-0.470;2023-05-07T01:52:43;8;6;
39955;PMS5003;25631;51.516;-0.470;2023-05-07T01:55:20;7;5;
39955;PMS5003;25631;51.516;-0.470;2023-05-07T01:57:56;7;5;
39955;PMS5003;25631;51.516;-0.470;2023-05-07T02:00:33;6;5;
39955;PMS5003;25631;51.516;-0.470;2023-05-07T02:03:09;7;6;
39955;PMS5003;25631;51.516;-0.470;2023-05-07T02:05:46;6;6;
39955;PMS5003;25631;51.516;-0.470;2023-05-07T02:08:22;6;5;
39955;PMS5003;25631;51.516;-0.470;2023-05-07T02:10:59;8;7;
39955;PMS5003;25631;51.516;-0.470;2023-05-07T02:13:35;9;6;
39955;PMS5003;25631;51.516;-0.470;2023-05-07T02:16:12;7;5;
39955;PMS5003;25631;51.516;-0.470;2023-05-07T02:18:48;9;5;
39955;PMS5003;25631;51.516;-0.470;2023-05-07T02:21:25;6;6;
39955;PMS5003;25631;51.516;-0.470;2023-05-07T02:24:01;8;7;
39955;PMS5003;25631;51.516;-0.470;2023-05-07T02:26:37;6;5;
39955;PMS5003;25631;51.516;-0.470;2023-05-07T02:29:15;3;3;
39955;PMS5003;25631;51.516;-0.470;2023-05-07T02:31:51;4;4;
39955;PMS5003;25631;51.516;-0.470;2023-05-07T02:34:28;8;5;
39955;PMS5003;25631;51.516;-0.470;2023-05-07T02:37:04;10;6;
39955;PMS5003;25631;51.516;-0.470;2023-05-07T02:39:41;7;5;
39955;PMS5003;25631;51.516;-0.470;2023-05-07T02:42:17;7;5;
39955;PMS5003;25631;51.516;-0.470;2023-05-07T02:44:53;6;6;
39955;PMS5003;25631;51.516;-0.470;2023-05-07T02:47:30;4;3;
39955;PMS5003;25631;51.516;-0.470;2023-05-07T02:50:07;4;4;
39955;PMS5003;25631;51.516;-0.470;2023-05-07T02:52:43;5;5;
39955;PMS5003;25631;51.516;-0.470;2023-05-07T02:55:20;7;6;
39955;PMS5003;25631;51.516;-0.470;2023-05-07T02:57:56;7;5;
39955;PMS5003;25631;51.516;-0.470;2023-05-07T03:00:33;8;6;
39955;PMS5003;25631;51.516;-0.470;2023-05-07T03:03:09;7;5;
39955;PMS5003;25631;51.516;-0.470;2023-05-07T03:05:46;6;5;
39955;PMS5003;25631;51.516;-0.470;2023-05-07T03:08:22;5;5;
39955;PMS5003;25631;51.516;-0.470;2023-05-07T03:10:59;5;5;
39955;PMS5003;25631;51.516;-0.470;2023-05-07T03:13:36;8;4;
39955;PMS5003;25631;51.516;-0.470;2023-05-07T03:16:12;6;4;
39955;PMS5003;25631;51.516;-0.470;2023-05-07T03:18:48;7;5;
39955;PMS5003;25631;51.516;-0.470;2023-05-07T03:21:25;5;5;
39955;PMS5003;25631;51.516;-0.470;2023-05-07T03:24:01;5;4;
39955;PMS5003;25631;51.516;-0.470;2023-05-07T03:26:37;5;3;
39955;PMS5003;25631;51.516;-0.470;2023-05-07T03:29:14;3;2;
39955;PMS5003;25631;51.516;-0.470;2023-05-07T03:31:50;3;2;
39955;PMS5003;25631;51.516;-0.470;2023-05-07T03:34:27;7;4;
39955;PMS5003;25631;51.516;-0.470;2023-05-07T03:37:03;7;5;
39955;PMS5003;25631;51.516;-0.470;2023-05-07T03:39:39;6;6;
39955;PMS5003;25631;51.516;-0.470;2023-05-07T03:42:16;7;6;
39955;PMS5003;25631;51.516;-0.470;2023-05-07T03:44:52;6;5;
39955;PMS5003;25631;51.516;-0.470;2023-05-07T03:47:29;6;5;
39955;PMS5003;25631;51.516;-0.470;2023-05-07T03:50:05;6;5;
39955;PMS5003;25631;51.516;-0.470;2023-05-07T03:52:42;6;5;
39955;PMS5003;25631;51.516;-0.470;2023-05-07T03:55:18;4;3;
39955;PMS5003;25631;51.516;-0.470;2023-05-07T03:57:54;5;3;
39955;PMS5003;25631;51.516;-0.470;2023-05-07T04:00:31;4;3;
39955;PMS5003;25631;51.516;-0.470;2023-05-07T04:03:07;6;3;
39955;PMS5003;25631;51.516;-0.470;2023-05-07T04:05:44;6;3;
39955;PMS5003;25631;51.516;-0.470;2023-05-07T04:08:20;7;5;
39955;PMS5003;25631;51.516;-0.470;2023-05-07T04:10:57;7;5;
39955;PMS5003;25631;51.516;-0.470;2023-05-07T04:13:34;8;6;
39955;PMS5003;25631;51.516;-0.470;2023-05-07T04:16:10;7;5;
39955;PMS5003;25631;51.516;-0.470;2023-05-07T04:18:47;5;5;
39955;PMS5003;25631;51.516;-0.470;2023-05-07T04:21:23;7;6;
39955;PMS5003;25631;51.516;-0.470;2023-05-07T04:23:59;8;7;
39955;PMS5003;25631;51.516;-0.470;2023-05-07T04:26:36;7;5;
39955;PMS5003;25631;51.516;-0.470;2023-05-07T04:29:12;4;3;
39955;PMS5003;25631;51.516;-0.470;2023-05-07T04:31:49;5;4;
39955;PMS5003;25631;51.516;-0.470;2023-05-07T04:34:25;5;4;
39955;PMS5003;25631;51.516;-0.470;2023-05-07T04:37:02;6;5;
39955;PMS5003;25631;51.516;-0.470;2023-05-07T04:39:38;5;5;
39955;PMS5003;25631;51.516;-0.470;2023-05-07T04:42:14;7;5;
39955;PMS5003;25631;51.516;-0.470;2023-05-07T04:44:52;8;6;
39955;PMS5003;25631;51.516;-0.470;2023-05-07T04:47:29;8;6;
39955;PMS5003;25631;51.516;-0.470;2023-05-07T04:50:06;8;5;
39955;PMS5003;25631;51.516;-0.470;2023-05-07T04:52:43;8;6;
39955;PMS5003;25631;51.516;-0.470;2023-05-07T04:55:19;5;5;
39955;PMS5003;25631;51.516;-0.470;2023-05-07T04:57:56;5;4;
39955;PMS5003;25631;51.516;-0.470;2023-05-07T05:00:32;6;6;
39955;PMS5003;25631;51.516;-0.470;2023-05-07T05:03:09;5;5;
39955;PMS5003;25631;51.516;-0.470;2023-05-07T05:05:45;6;6;
39955;PMS5003;25631;51.516;-0.470;2023-05-07T05:08:21;8;7;
39955;PMS5003;25631;51.516;-0.470;2023-05-07T05:10:58;8;7;
39955;PMS5003;25631;51.516;-0.470;2023-05-07T05:13:36;4;4;
39955;PMS5003;25631;51.516;-0.470;2023-05-07T05:16:12;4;4;
39955;PMS5003;25631;51.516;-0.470;2023-05-07T05:18:48;4;4;
39955;PMS5003;25631;51.516;-0.470;2023-05-07T05:21:25;5;5;
39955;PMS5003;25631;51.516;-0.470;2023-05-07T05:24:01;8;5;
39955;PMS5003;25631;51.516;-0.470;2023-05-07T05:26:38;7;5;
39955;PMS5003;25631;51.516;-0.470;2023-05-07T05:29:14;5;4;
39955;PMS5003;25631;51.516;-0.470;2023-05-07T05:31:51;6;5;
39955;PMS5003;25631;51.516;-0.470;2023-05-07T05:34:27;8;7;
39955;PMS5003;25631;51.516;-0.470;2023-05-07T05:37:04;8;7;
39955;PMS5003;25631;51.516;-0.470;2023-05-07T05:39:41;9;8;
39955;PMS5003;25631;51.516;-0.470;2023-05-07T05:42:18;5;4;
39955;PMS5003;25631;51.516;-0.470;2023-05-07T05:44:54;5;4;
39955;PMS5003;25631;51.516;-0.470;2023-05-07T05:47:30;6;5;
39955;PMS5003;25631;51.516;-0.470;2023-05-07T05:50:07;6;5;
39955;PMS5003;25631;51.516;-0.470;2023-05-07T05:52:44;6;5;
39955;PMS5003;25631;51.516;-0.470;2023-05-07T05:55:20;9;6;
39955;PMS5003;25631;51.516;-0.470;2023-05-07T05:57:57;6;5;
39955;PMS5003;25631;51.516;-0.470;2023-05-07T06:00:33;7;6;
39955;PMS5003;25631;51.516;-0.470;2023-05-07T06:03:10;12;12;
39955;PMS5003;25631;51.516;-0.470;2023-05-07T06:05:46;11;11;
39955;PMS5003;25631;51.516;-0.470;2023-05-07T06:08:23;8;6;
39955;PMS5003;25631;51.516;-0.470;2023-05-07T06:10:59;9;7;
39955;PMS5003;25631;51.516;-0.470;2023-05-07T06:13:37;9;7;
39955;PMS5003;25631;51.516;-0.470;2023-05-07T06:16:14;6;6;
39955;PMS5003;25631;51.516;-0.470;2023-05-07T06:18:50;7;5;
39955;PMS5003;25631;51.516;-0.470;2023-05-07T06:21:27;4;4;
39955;PMS5003;25631;51.516;-0.470;2023-05-07T06:24:03;5;5;
39955;PMS5003;25631;51.516;-0.470;2023-05-07T06:26:40;6;5;
39955;PMS5003;25631;51.516;-0.470;2023-05-07T06:29:16;7;6;
39955;PMS5003;25631;51.516;-0.470;2023-05-07T06:31:53;8;6;
39955;PMS5003;25631;51.516;-0.470;2023-05-07T06:34:29;8;6;
39955;PMS5003;25631;51.516;-0.470;2023-05-07T06:37:06;7;4;
39955;PMS5003;25631;51.516;-0.470;2023-05-07T06:39:43;8;5;
39955;PMS5003;25631;51.516;-0.470;2023-05-07T06:42:19;6;6;
39955;PMS5003;25631;51.516;-0.470;2023-05-07T06:44:55;5;5;
39955;PMS5003;25631;51.516;-0.470;2023-05-07T06:47:32;5;5;
39955;PMS5003;25631;51.516;-0.470;2023-05-07T06:50:08;11;7;
39955;PMS5003;25631;51.516;-0.470;2023-05-07T06:52:45;13;11;
39955;PMS5003;25631;51.516;-0.470;2023-05-07T06:55:22;7;5;
39955;PMS5003;25631;51.516;-0.470;2023-05-07T06:57:58;8;5;
39955;PMS5003;25631;51.516;-0.470;2023-05-07T07:00:34;6;4;
39955;PMS5003;25631;51.516;-0.470;2023-05-07T07:03:11;6;5;
39955;PMS5003;25631;51.516;-0.470;2023-05-07T07:05:47;6;5;
39955;PMS5003;25631;51.516;-0.470;2023-05-07T07:08:27;6;6;
39955;PMS5003;25631;51.516;-0.470;2023-05-07T07:11:03;8;5;
39955;PMS5003;25631;51.516;-0.470;2023-05-07T07:13:40;5;4;
39955;PMS5003;25631;51.516;-0.470;2023-05-07T07:16:17;6;6;
39955;PMS5003;25631;51.516;-0.470;2023-05-07T07:18:53;7;6;
39955;PMS5003;25631;51.516;-0.470;2023-05-07T07:21:30;8;7;
39955;PMS5003;25631;51.516;-0.470;2023-05-07T07:24:06;5;4;
39955;PMS5003;25631;51.516;-0.470;2023-05-07T07:26:42;5;5;
39955;PMS5003;25631;51.516;-0.470;2023-05-07T07:29:19;9;8;
39955;PMS5003;25631;51.516;-0.470;2023-05-07T07:31:56;9;7;
39955;PMS5003;25631;51.516;-0.470;2023-05-07T07:34:32;8;7;
39955;PMS5003;25631;51.516;-0.470;2023-05-07T07:37:09;5;5;
39955;PMS5003;25631;51.516;-0.470;2023-05-07T07:39:45;5;5;
39955;PMS5003;25631;51.516;-0.470;2023-05-07T07:42:22;6;5;
39955;PMS5003;25631;51.516;-0.470;2023-05-07T07:44:58;7;5;
39955;PMS5003;25631;51.516;-0.470;2023-05-07T07:47:35;6;3;
39955;PMS5003;25631;51.516;-0.470;2023-05-07T07:50:11;7;5;
39955;PMS5003;25631;51.516;-0.470;2023-05-07T07:52:48;6;4;
39955;PMS5003;25631;51.516;-0.470;2023-05-07T07:55:25;7;4;
39955;PMS5003;25631;51.516;-0.470;2023-05-07T07:58:01;8;5;
39955;PMS5003;25631;51.516;-0.470;2023-05-07T08:00:38;7;4;
39955;PMS5003;25631;51.516;-0.470;2023-05-07T08:03:14;8;8;
39955;PMS5003;25631;51.516;-0.470;2023-05-07T08:05:51;9;7;
39955;PMS5003;25631;51.516;-0.470;2023-05-07T08:08:27;9;7;
39955;PMS5003;25631;51.516;-0.470;2023-05-07T08:11:03;6;5;
39955;PMS5003;25631;51.516;-0.470;2023-05-07T08:13:40;6;5;
39955;PMS5003;25631;51.516;-0.470;2023-05-07T08:16:17;5;5;
39955;PMS5003;25631;51.516;-0.470;2023-05-07T08:18:53;5;4;
39955;PMS5003;25631;51.516;-0.470;2023-05-07T08:21:29;5;4;
39955;PMS5003;25631;51.516;-0.470;2023-05-07T08:24:06;5;3;
39955;PMS5003;25631;51.516;-0.470;2023-05-07T08:26:43;4;3;
39955;PMS5003;25631;51.516;-0.470;2023-05-07T08:29:19;5;3;
39955;PMS5003;25631;51.516;-0.470;2023-05-07T08:31:56;6;5;
39955;PMS5003;25631;51.516;-0.470;2023-05-07T08:34:32;5;4;
39955;PMS5003;25631;51.516;-0.470;2023-05-07T08:37:09;5;3;
39955;PMS5003;25631;51.516;-0.470;2023-05-07T08:39:45;5;4;
39955;PMS5003;25631;51.516;-0.470;2023-05-07T08:42:22;6;5;
39955;PMS5003;25631;51.516;-0.470;2023-05-07T08:44:59;5;2;
39955;PMS5003;25631;51.516;-0.470;2023-05-07T08:47:40;5;3;
39955;PMS5003;25631;51.516;-0.470;2023-05-07T08:50:19;5;2;
39955;PMS5003;25631;51.516;-0.470;2023-05-07T08:52:56;3;3;
39955;PMS5003;25631;51.516;-0.470;2023-05-07T08:55:33;3;3;
39955;PMS5003;25631;51.516;-0.470;2023-05-07T08:58:09;6;4;
39955;PMS5003;25631;51.516;-0.470;2023-05-07T09:00:46;6;4;
39955;PMS5003;25631;51.516;-0.470;2023-05-07T09:03:23;5;4;
39955;PMS5003;25631;51.516;-0.470;2023-05-07T09:05:59;3;3;
39955;PMS5003;25631;51.516;-0.470;2023-05-07T09:08:36;5;4;
39955;PMS5003;25631;51.516;-0.470;2023-05-07T09:11:13;3;2;
39955;PMS5003;25631;51.516;-0.470;2023-05-07T09:13:51;2;1;
39955;PMS5003;25631;51.516;-0.470;2023-05-07T09:16:30;3;2;
39955;PMS5003;25631;51.516;-0.470;2023-05-07T09:19:06;6;5;
39955;PMS5003;25631;51.516;-0.470;2023-05-07T09:21:43;7;5;
39955;PMS5003;25631;51.516;-0.470;2023-05-07T09:24:20;7;7;
39955;PMS5003;25631;51.516;-0.470;2023-05-07T09:26:57;5;4;
39955;PMS5003;25631;51.516;-0.470;2023-05-07T09:29:33;5;4;
39955;PMS5003;25631;51.516;-0.470;2023-05-07T09:32:10;3;2;
39955;PMS5003;25631;51.516;-0.470;2023-05-07T09:34:46;4;3;
39955;PMS5003;25631;51.516;-0.470;2023-05-07T09:37:23;3;2;
39955;PMS5003;25631;51.516;-0.470;2023-05-07T09:40:02;8;5;
39955;PMS5003;25631;51.516;-0.470;2023-05-07T09:42:39;7;4;
39955;PMS5003;25631;51.516;-0.470;2023-05-07T09:45:16;5;4;
39955;PMS5003;25631;51.516;-0.470;2023-05-07T09:47:57;5;3;
39955;PMS5003;25631;51.516;-0.470;2023-05-07T09:50:35;6;4;
39955;PMS5003;25631;51.516;-0.470;2023-05-07T09:53:16;10;10;
39955;PMS5003;25631;51.516;-0.470;2023-05-07T09:55:53;8;8;
39955;PMS5003;25631;51.516;-0.470;2023-05-07T09:58:30;4;4;
39955;PMS5003;25631;51.516;-0.470;2023-05-07T10:01:10;5;5;
39955;PMS5003;25631;51.516;-0.470;2023-05-07T10:03:47;5;5;
39955;PMS5003;25631;51.516;-0.470;2023-05-07T10:06:26;2;2;
39955;PMS5003;25631;51.516;-0.470;2023-05-07T10:09:04;2;2;
39955;PMS5003;25631;51.516;-0.470;2023-05-07T10:11:41;2;2;
39955;PMS5003;25631;51.516;-0.470;2023-05-07T10:14:19;3;3;
39955;PMS5003;25631;51.516;-0.470;2023-05-07T10:16:56;4;3;
39955;PMS5003;25631;51.516;-0.470;2023-05-07T10:19:33;1;1;
39955;PMS5003;25631;51.516;-0.470;2023-05-07T10:22:11;1;1;
39955;PMS5003;25631;51.516;-0.470;2023-05-07T10:24:50;5;4;
39955;PMS5003;25631;51.516;-0.470;2023-05-07T10:27:29;5;4;
39955;PMS5003;25631;51.516;-0.470;2023-05-07T10:30:10;4;3;
39955;PMS5003;25631;51.516;-0.470;2023-05-07T10:32:53;6;4;
39955;PMS5003;25631;51.516;-0.470;2023-05-07T10:35:37;8;7;
39955;PMS5003;25631;51.516;-0.470;2023-05-07T10:38:15;5;4;
39955;PMS5003;25631;51.516;-0.470;2023-05-07T10:40:52;4;3;
39955;PMS5003;25631;51.516;-0.470;2023-05-07T10:43:37;3;3;
39955;PMS5003;25631;51.516;-0.470;2023-05-07T10:46:16;1;1;
39955;PMS5003;25631;51.516;-0.470;2023-05-07T10:49:09;2;2;
39955;PMS5003;25631;51.516;-0.470;2023-05-07T10:51:46;4;4;
39955;PMS5003;25631;51.516;-0.470;2023-05-07T10:54:47;3;3;
39955;PMS5003;25631;51.516;-0.470;2023-05-07T10:57:55;3;2;
39955;PMS5003;25631;51.516;-0.470;2023-05-07T11:00:41;3;3;
39955;PMS5003;25631;51.516;-0.470;2023-05-07T11:03:18;3;3;
39955;PMS5003;25631;51.516;-0.470;2023-05-07T11:06:14;4;4;
39955;PMS5003;25631;51.516;-0.470;2023-05-07T11:08:53;6;5;
39955;PMS5003;25631;51.516;-0.470;2023-05-07T11:11:46;4;3;
39955;PMS5003;25631;51.516;-0.470;2023-05-07T11:14:55;2;2;
39955;PMS5003;25631;51.516;-0.470;2023-05-07T11:17:33;2;2;
39955;PMS5003;25631;51.516;-0.470;2023-05-07T11:20:10;2;2;
39955;PMS5003;25631;51.516;-0.470;2023-05-07T11:22:46;2;2;
39955;PMS5003;25631;51.516;-0.470;2023-05-07T11:25:23;2;2;
39955;PMS5003;25631;51.516;-0.470;2023-05-07T11:28:04;2;2;
39955;PMS5003;25631;51.516;-0.470;2023-05-07T11:30:42;2;2;
39955;PMS5003;25631;51.516;-0.470;2023-05-07T11:33:19;3;3;
39955;PMS5003;25631;51.516;-0.470;2023-05-07T11:35:55;3;3;
39955;PMS5003;25631;51.516;-0.470;2023-05-07T11:38:34;2;2;
39955;PMS5003;25631;51.516;-0.470;2023-05-07T11:41:11;2;2;
39955;PMS5003;25631;51.516;-0.470;2023-05-07T11:43:56;3;3;
39955;PMS5003;25631;51.516;-0.470;2023-05-07T11:46:34;3;3;
39955;PMS5003;25631;51.516;-0.470;2023-05-07T11:49:10;3;2;
39955;PMS5003;25631;51.516;-0.470;2023-05-07T11:51:47;3;3;
39955;PMS5003;25631;51.516;-0.470;2023-05-07T11:54:24;4;3;
39955;PMS5003;25631;51.516;-0.470;2023-05-07T11:57:01;2;2;
39955;PMS5003;25631;51.516;-0.470;2023-05-07T11:59:38;4;3;
39955;PMS5003;25631;51.516;-0.470;2023-05-07T12:02:17;3;3;
39955;PMS5003;25631;51.516;-0.470;2023-05-07T12:04:54;2;2;
39955;PMS5003;25631;51.516;-0.470;2023-05-07T12:07:32;2;2;
39955;PMS5003;25631;51.516;-0.470;2023-05-07T12:10:09;2;2;
39955;PMS5003;25631;51.516;-0.470;2023-05-07T12:12:47;2;2;
39955;PMS5003;25631;51.516;-0.470;2023-05-07T12:15:24;3;3;
39955;PMS5003;25631;51.516;-0.470;2023-05-07T12:18:00;4;2;
39955;PMS5003;25631;51.516;-0.470;2023-05-07T12:20:37;6;6;
39955;PMS5003;25631;51.516;-0.470;2023-05-07T12:23:14;4;4;
39955;PMS5003;25631;51.516;-0.470;2023-05-07T12:25:52;4;4;
39955;PMS5003;25631;51.516;-0.470;2023-05-07T12:28:28;3;2;
39955;PMS5003;25631;51.516;-0.470;2023-05-07T12:31:05;4;3;
39955;PMS5003;25631;51.516;-0.470;2023-05-07T12:33:42;4;3;
39955;PMS5003;25631;51.516;-0.470;2023-05-07T12:36:19;5;4;
39955;PMS5003;25631;51.516;-0.470;2023-05-07T12:38:55;4;3;
39955;PMS5003;25631;51.516;-0.470;2023-05-07T12:41:35;3;3;
39955;PMS5003;25631;51.516;-0.470;2023-05-07T12:44:29;5;4;
39955;PMS5003;25631;51.516;-0.470;2023-05-07T12:47:06;5;3;
39955;PMS5003;25631;51.516;-0.470;2023-05-07T12:49:43;4;4;
39955;PMS5003;25631;51.516;-0.470;2023-05-07T12:52:19;3;3;
39955;PMS5003;25631;51.516;-0.470;2023-05-07T12:54:56;4;3;
39955;PMS5003;25631;51.516;-0.470;2023-05-07T12:57:37;3;3;
39955;PMS5003;25631;51.516;-0.470;2023-05-07T13:00:14;3;3;
39955;PMS5003;25631;51.516;-0.470;2023-05-07T13:02:52;4;4;
39955;PMS5003;25631;51.516;-0.470;2023-05-07T13:05:30;3;3;
39955;PMS5003;25631;51.516;-0.470;2023-05-07T13:08:07;3;3;
39955;PMS5003;25631;51.516;-0.470;2023-05-07T13:10:44;3;3;
39955;PMS5003;25631;51.516;-0.470;2023-05-07T13:13:21;4;3;
39955;PMS5003;25631;51.516;-0.470;2023-05-07T13:15:58;4;4;
39955;PMS5003;25631;51.516;-0.470;2023-05-07T13:18:34;5;5;
39955;PMS5003;25631;51.516;-0.470;2023-05-07T13:21:11;5;5;
39955;PMS5003;25631;51.516;-0.470;2023-05-07T13:23:47;3;3;
39955;PMS5003;25631;51.516;-0.470;2023-05-07T13:26:24;4;4;
39955;PMS5003;25631;51.516;-0.470;2023-05-07T13:29:00;7;6;
39955;PMS5003;25631;51.516;-0.470;2023-05-07T13:31:37;7;6;
39955;PMS5003;25631;51.516;-0.470;2023-05-07T13:34:15;7;7;
39955;PMS5003;25631;51.516;-0.470;2023-05-07T13:36:52;5;4;
39955;PMS5003;25631;51.516;-0.470;2023-05-07T13:39:28;4;4;
39955;PMS5003;25631;51.516;-0.470;2023-05-07T13:42:04;3;3;
39955;PMS5003;25631;51.516;-0.470;2023-05-07T13:44:41;4;4;
39955;PMS5003;25631;51.516;-0.470;2023-05-07T13:47:17;5;5;
39955;PMS5003;25631;51.516;-0.470;2023-05-07T13:49:54;16;15;
39955;PMS5003;25631;51.516;-0.470;2023-05-07T13:52:30;12;12;
39955;PMS5003;25631;51.516;-0.470;2023-05-07T13:55:07;10;10;
39955;PMS5003;25631;51.516;-0.470;2023-05-07T13:57:43;5;5;
39955;PMS5003;25631;51.516;-0.470;2023-05-07T14:00:20;5;5;
39955;PMS5003;25631;51.516;-0.470;2023-05-07T14:02:56;7;5;
39955;PMS5003;25631;51.516;-0.470;2023-05-07T14:05:33;7;5;
39955;PMS5003;25631;51.516;-0.470;2023-05-07T14:08:09;6;5;
39955;PMS5003;25631;51.516;-0.470;2023-05-07T14:10:46;4;4;
39955;PMS5003;25631;51.516;-0.470;2023-05-07T14:13:22;5;4;
39955;PMS5003;25631;51.516;-0.470;2023-05-07T14:15:59;4;4;
39955;PMS5003;25631;51.516;-0.470;2023-05-07T14:18:35;4;4;
39955;PMS5003;25631;51.516;-0.470;2023-05-07T14:21:11;4;4;
39955;PMS5003;25631;51.516;-0.470;2023-05-07T14:23:48;6;4;
39955;PMS5003;25631;51.516;-0.470;2023-05-07T14:26:24;6;5;
39955;PMS5003;25631;51.516;-0.470;2023-05-07T14:29:01;6;5;
39955;PMS5003;25631;51.516;-0.470;2023-05-07T14:31:38;5;4;
39955;PMS5003;25631;51.516;-0.470;2023-05-07T14:34:14;5;4;
39955;PMS5003;25631;51.516;-0.470;2023-05-07T14:36:51;4;4;
39955;PMS5003;25631;51.516;-0.470;2023-05-07T14:39:27;4;4;
39955;PMS5003;25631;51.516;-0.470;2023-05-07T14:42:04;3;3;
39955;PMS5003;25631;51.516;-0.470;2023-05-07T14:44:40;6;6;
39955;PMS5003;25631;51.516;-0.470;2023-05-07T14:47:17;5;5;
39955;PMS5003;25631;51.516;-0.470;2023-05-07T14:49:53;9;7;
39955;PMS5003;25631;51.516;-0.470;2023-05-07T14:52:30;7;7;
39955;PMS5003;25631;51.516;-0.470;2023-05-07T14:55:07;6;6;
39955;PMS5003;25631;51.516;-0.470;2023-05-07T14:57:44;5;5;
39955;PMS5003;25631;51.516;-0.470;2023-05-07T15:00:20;4;4;
39955;PMS5003;25631;51.516;-0.470;2023-05-07T15:02:59;6;5;
39955;PMS5003;25631;51.516;-0.470;2023-05-07T15:05:41;5;4;
39955;PMS5003;25631;51.516;-0.470;2023-05-07T15:08:17;4;4;
39955;PMS5003;25631;51.516;-0.470;2023-05-07T15:10:54;6;4;
39955;PMS5003;25631;51.516;-0.470;2023-05-07T15:13:31;5;3;
39955;PMS5003;25631;51.516;-0.470;2023-05-07T15:16:07;5;3;
39955;PMS5003;25631;51.516;-0.470;2023-05-07T15:18:44;10;9;
39955;PMS5003;25631;51.516;-0.470;2023-05-07T15:21:21;8;8;
39955;PMS5003;25631;51.516;-0.470;2023-05-07T15:23:58;4;4;
39955;PMS5003;25631;51.516;-0.470;2023-05-07T15:26:34;4;4;
39955;PMS5003;25631;51.516;-0.470;2023-05-07T15:29:11;6;6;
39955;PMS5003;25631;51.516;-0.470;2023-05-07T15:31:48;4;4;
39955;PMS5003;25631;51.516;-0.470;2023-05-07T15:34:25;5;4;
39955;PMS5003;25631;51.516;-0.470;2023-05-07T15:37:01;5;4;
39955;PMS5003;25631;51.516;-0.470;2023-05-07T15:39:38;5;4;
39955;PMS5003;25631;51.516;-0.470;2023-05-07T15:42:15;5;4;
39955;PMS5003;25631;51.516;-0.470;2023-05-07T15:44:51;4;4;
39955;PMS5003;25631;51.516;-0.470;2023-05-07T15:47:28;4;4;
39955;PMS5003;25631;51.516;-0.470;2023-05-07T15:50:09;4;4;
39955;PMS5003;25631;51.516;-0.470;2023-05-07T15:52:46;6;6;
39955;PMS5003;25631;51.516;-0.470;2023-05-07T15:55:23;5;5;
39955;PMS5003;25631;51.516;-0.470;2023-05-07T15:58:00;4;4;
39955;PMS5003;25631;51.516;-0.470;2023-05-07T16:00:37;4;4;
39955;PMS5003;25631;51.516;-0.470;2023-05-07T16:03:14;4;4;
39955;PMS5003;25631;51.516;-0.470;2023-05-07T16:05:51;6;6;
39955;PMS5003;25631;51.516;-0.470;2023-05-07T16:08:28;5;5;
39955;PMS5003;25631;51.516;-0.470;2023-05-07T16:11:04;5;3;
39955;PMS5003;25631;51.516;-0.470;2023-05-07T16:13:41;6;5;
39955;PMS5003;25631;51.516;-0.470;2023-05-07T16:16:17;5;5;
39955;PMS5003;25631;51.516;-0.470;2023-05-07T16:18:54;8;7;
39955;PMS5003;25631;51.516;-0.470;2023-05-07T16:21:31;9;7;
39955;PMS5003;25631;51.516;-0.470;2023-05-07T16:24:08;8;7;
39955;PMS5003;25631;51.516;-0.470;2023-05-07T16:26:44;8;8;
39955;PMS5003;25631;51.516;-0.470;2023-05-07T16:29:20;8;7;
39955;PMS5003;25631;51.516;-0.470;2023-05-07T16:31:57;8;7;
39955;PMS5003;25631;51.516;-0.470;2023-05-07T16:34:34;7;7;
39955;PMS5003;25631;51.516;-0.470;2023-05-07T16:37:10;8;7;
39955;PMS5003;25631;51.516;-0.470;2023-05-07T16:39:46;6;6;
39955;PMS5003;25631;51.516;-0.470;2023-05-07T16:42:23;6;6;
39955;PMS5003;25631;51.516;-0.470;2023-05-07T16:45:00;8;6;
39955;PMS5003;25631;51.516;-0.470;2023-05-07T16:47:37;9;7;
39955;PMS5003;25631;51.516;-0.470;2023-05-07T16:50:13;8;6;
39955;PMS5003;25631;51.516;-0.470;2023-05-07T16:52:50;6;6;
39955;PMS5003;25631;51.516;-0.470;2023-05-07T16:55:26;7;7;
39955;PMS5003;25631;51.516;-0.470;2023-05-07T16:58:03;7;7;
39955;PMS5003;25631;51.516;-0.470;2023-05-07T17:00:39;8;6;
39955;PMS5003;25631;51.516;-0.470;2023-05-07T17:03:16;8;7;
39955;PMS5003;25631;51.516;-0.470;2023-05-07T17:05:53;33;32;
39955;PMS5003;25631;51.516;-0.470;2023-05-07T17:08:30;31;29;
39955;PMS5003;25631;51.516;-0.470;2023-05-07T17:11:07;29;28;
39955;PMS5003;25631;51.516;-0.470;2023-05-07T17:13:43;7;6;
39955;PMS5003;25631;51.516;-0.470;2023-05-07T17:16:20;6;5;
39955;PMS5003;25631;51.516;-0.470;2023-05-07T17:18:56;8;7;
39955;PMS5003;25631;51.516;-0.470;2023-05-07T17:21:33;7;6;
39955;PMS5003;25631;51.516;-0.470;2023-05-07T17:24:09;6;6;
39955;PMS5003;25631;51.516;-0.470;2023-05-07T17:26:46;9;7;
39955;PMS5003;25631;51.516;-0.470;2023-05-07T17:29:23;8;7;
39955;PMS5003;25631;51.516;-0.470;2023-05-07T17:31:59;6;5;
39955;PMS5003;25631;51.516;-0.470;2023-05-07T17:34:36;5;5;
39955;PMS5003;25631;51.516;-0.470;2023-05-07T17:37:13;5;4;
39955;PMS5003;25631;51.516;-0.470;2023-05-07T17:39:50;7;5;